Tropical Cyclones
[Index]
Main Index Home Page Stock Weather Photos Extreme Storms Discussion Storm News and Storm Chasing Reports Tropical Cyclones / Hurricanes / Typhoons Weather Data and Links Wild Fires / Bushfires Weather Observation Techniques Weather Picture Catalogue Tornado Pictures and Reports Stock Video Footage and DVDs for sale
Season 2002-2003 Tropical Cyclone EBULA Track Map
Season 2002-2003 Summaries: [BoM-AU] [JTWC-AU] [JTWC-SIO] [JTWC-SPAC] [JTWC-SH]
<<- Previous TC | JTWC 2002-2003 Season | Next TC ->>

click for intensity scale information  Lat/long Grid: Show Hide

 Date Labels: Show Hide

Joint Typhoon Warning Centre Cyclone Data

Name: EBULA

06 Jan 2003 12:00 UTC to 12 Jan 2003 12:00 UTC

    date/time    lat    long     hPa   cat  kts
2003-01-06 12    9.5    71.8    1002         25          
2003-01-06 18    9.9    71.5    1002         25          
2003-01-07 00   10.4    71.5    1002         25          
2003-01-07 06   10.8    71.2    1002         25          
2003-01-07 12   10.9    70.7    1002         25          
2003-01-07 18   11.1    70.2    1002         25          
2003-01-08 00   11.6    70.2     997         35          
2003-01-08 06   12.2    70.4     997         35          
2003-01-08 12   12.9    70.6     997         35          
2003-01-08 18   13.6    70.7     994    1    40          
2003-01-09 00   14.3    70.8     987    1    50          
2003-01-09 06   15.0    71.1     987    1    50          
2003-01-09 12   15.8    71.3     984    2    55          
2003-01-09 18   16.7    71.3     980    2    60          
2003-01-10 00   17.7    70.8     976    2    65          
2003-01-10 06   18.8    70.4     976    2    65          
2003-01-10 12   20.1    70.0     976    2    65          
2003-01-10 18   21.7    69.7     976    2    65          
2003-01-11 00   23.3    69.6     980    2    60          
2003-01-11 06   24.7    69.5     984    2    55          
2003-01-11 12   26.0    69.9     987    1    50          
2003-01-11 18   26.8    70.5     991    1    45          
2003-01-12 00   27.5    71.2     994    1    40          
2003-01-12 06   28.1    72.0     997         35          
2003-01-12 12   28.4    73.1    1000         30          
Winds are 1-min average.

Tropical cyclone tracks developed by Michael Bath using data from the Joint Typhoon Warning Centre Best Tracks and Google Maps.


[Australian Severe Weather index] [Copyright Notice] [Email Contacts] [Search This Site] [Privacy Policy]
Document: tropical_cyclone_ebula.htm Updated: 28 June 2017